Terminal Aerodrome Forecast
Issued by NWS

Home | Current Version | Previous Version | Text Only | Print | Product List | Glossary On
Versions: 1 2 3 4 5 6 7 8 9 10 11 12
692
FTUS42 KTBW 292322
TAFPIE
TAF
KPIE 292322Z 3000/3024 32010KT P6SM SKC
     FM300200 36005KT P6SM SKC
     FM300500 05004KT P6SM SKC
     FM300800 10004KT P6SM SKC
     FM301300 14010KT P6SM SKC
     FM301800 18007KT P6SM SCT050
     FM302000 22008KT P6SM SCT050
     FM302300 29007KT P6SM SKC=

USA.gov is the U.S. government's official web portal to all federal, state and local government web resources and services.